Tholey, Germany

11:27 AM CEST on September 16, 2014 (GMT +0200)
INEUNKIR1 | Change Station
CLOSE
Current Station
Personal Weather Station
Location: Neunkirchen/Nahe,
Elevation: 1424 ft
Nearby Weather Stations

Elev 1424 ft 49.55 °N, 7.05 °E | Updated 12 minutes ago

Partly Cloudy
Partly Cloudy
65.1 °F
Feels Like 65.1 °F
N
0.0
Wind Variable Wind from NNE
Gusts 4.0 mph

Today
High -- | Low -- °F
--% Chance of Precip.
Yesterday
High -- | Low -- °F
Precip. -- in
7:09 AM 7:43 PM
Waning Gibbous, 47% visible
Pressure 30.01 in
Visibility 5.6 miles
Clouds Few 700 ft
Dew Point 65 °F
Humidity 100%
Rainfall 0.00 in
Snow Depth Not available.
UV 4 out of 12
Pollen Not available.
Air Quality Not available.
Flu Activity Not available.
METAR EDDR 160920Z 06003KT 360V130 9000 FEW007 17/14 Q1016 NOSIG

More Conditions Fewer Conditions

Pressure 30.01 in
Visibility 5.6 miles
Clouds Few 700 ft
Dew Point 65 °F
Humidity 100%
Rainfall 0.00 in
Snow Depth Not available.
UV 4 out of 12
Pollen Not available.
Air Quality Not available.
Flu Activity Not available.
METAR EDDR 160920Z 06003KT 360V130 9000 FEW007 17/14 Q1016 NOSIG

More Conditions Fewer Conditions

10-Day Weather Forecast

Almanac

Astronomy

Sep. 16, 2014 Rise Set
Actual Time 7:09 AM CEST 7:43 PM CEST
Civil Twilight 6:36 AM CEST 8:15 PM CEST
Nautical Twilight 5:58 AM CEST 8:53 PM CEST
Astronomical Twilight 5:18 AM CEST 9:33 PM CEST
Moon No Moon Rise 3:17 PM CEST
Length of Visible Light 13h 38m
Length of Day
12h 34m
Tomorrow will be 3m 37s shorter.
Waning Gibbous, 47% of the Moon is Illuminated
Today
Waning Gibbous
Sep 24
New
Oct 1
First Quarter
Oct 8
Full
Oct 15
Last Quarter

Yesterday's Extremes

Country Highs Country Lows

Community

WunderPhotos

Upload Photos

1,753,714 photos uploaded!

WunderBlogs® & News

Nearby

Snow Depth

Not available.

Earthquake Activity

City Distance Mag. Time & Date
No recent earthquake activity has been reported nearby.
Minimum magnitude displayed is 2.5.

Coastal Water Temperatures

Place Temperature
No Stations Reporting

Nearby Weather Stations